Time;durP1;ratioP1;P1;durP2;ratioP2;P2;SDS_P1;SDS_P2;PMS_P1;PMS_P2;Temp;Humidity;BMP_temperature;BMP_pressure;BME280_temperature;BME280_humidity;BME280_pressure;Samples;Min_cycle;Max_cycle;Signal;HPM_P1;HPM_P2
2023/04/03 00:01:25;;;;;;;;;;;;;;;;;;5056152;28;19956;-67
2023/04/03 00:03:51;;;;;;;;;;;;;;;;;;5056090;28;19969;-69
2023/04/03 00:06:17;;;;;;;;;;;;;;;;;;5056016;28;19955;-67
2023/04/03 00:08:43;;;;;;;;;;;;;;;;;;5055992;28;19959;-67
2023/04/03 00:11:09;;;;;;;;;;;;;;;;;;5056418;28;20030;-67
2023/04/03 00:13:35;;;;;;;;;;;;;;;;;;5055897;28;19955;-68
2023/04/03 00:16:01;;;;;;;;;;;;;;;;;;5055825;28;20120;-68
2023/04/03 00:18:27;;;;;;;;;;;;;;;;;;5056369;28;20431;-68
2023/04/03 00:20:53;;;;;;;;;;;;;;;;;;5055554;28;20002;-68
2023/04/03 00:23:19;;;;;;;;;;;;;;;;;;5055720;28;19955;-69
2023/04/03 00:25:45;;;;;;;;;;;;;;;;;;5055717;28;19956;-69
2023/04/03 00:28:11;;;;;;;;;;;;;;;;;;5055919;28;19963;-69
2023/04/03 00:30:36;;;;;;;;;;;;;;;;;;5055474;28;20027;-70
2023/04/03 00:33:02;;;;;;;;;;;;;;;;;;5055529;28;19959;-68
2023/04/03 00:35:29;;;;;;;;;;;;;;;;;;5055501;28;19961;-69
2023/04/03 00:37:55;;;;;;;;;;;;;;;;;;5056048;28;19955;-69
2023/04/03 00:40:21;;;;;;;;;;;;;;;;;;5055926;28;19962;-67
2023/04/03 00:42:47;;;;;;;;;;;;;;;;;;5055602;28;19977;-69
2023/04/03 00:45:13;;;;;;;;;;;;;;;;;;5055863;28;19999;-69
2023/04/03 00:47:39;;;;;;;;;;;;;;;;;;5055249;28;20011;-68
2023/04/03 00:50:05;;;;;;;;;;;;;;;;;;5054243;28;19976;-69
2023/04/03 00:52:31;;;;;;;;;;;;;;;;;;5055239;28;20069;-69
2023/04/03 00:54:57;;;;;;;;;;;;;;;;;;5055195;28;19956;-67
2023/04/03 00:57:23;;;;;;;;;;;;;;;;;;5053596;28;19964;-68
2023/04/03 00:59:49;;;;;;;;;;;;;;;;;;5055081;28;19955;-69
2023/04/03 01:02:15;;;;;;;;;;;;;;;;;;5055038;28;19956;-68
2023/04/03 01:04:41;;;;;;;;;;;;;;;;;;5055491;28;20323;-68
2023/04/03 01:07:07;;;;;;;;;;;;;;;;;;5055225;28;19959;-67
2023/04/03 01:09:32;;;;;;;;;;;;;;;;;;5054814;28;19978;-68
2023/04/03 01:11:58;;;;;;;;;;;;;;;;;;5054860;28;19956;-67
2023/04/03 01:14:24;;;;;;;;;;;;;;;;;;5055060;28;20025;-68
2023/04/03 01:16:50;;;;;;;;;;;;;;;;;;5054715;28;20001;-68
2023/04/03 01:19:16;;;;;;;;;;;;;;;;;;5054916;28;19956;-69
2023/04/03 01:21:42;;;;;;;;;;;;;;;;;;5054736;28;20495;-68
2023/04/03 01:24:08;;;;;;;;;;;;;;;;;;5054573;28;19962;-67
2023/04/03 01:26:35;;;;;;;;;;;;;;;;;;5054814;28;20455;-68
2023/04/03 01:29:01;;;;;;;;;;;;;;;;;;5054844;28;20312;-68
2023/04/03 01:31:27;;;;;;;;;;;;;;;;;;5054923;28;19986;-67
2023/04/03 01:33:53;;;;;;;;;;;;;;;;;;5054380;28;19960;-69
2023/04/03 01:36:19;;;;;;;;;;;;;;;;;;5054351;28;19954;-68
2023/04/03 01:38:45;;;;;;;;;;;;;;;;;;5054269;28;19961;-68
2023/04/03 01:41:10;;;;;;;;;;;;;;;;;;5054788;28;19964;-69
2023/04/03 01:43:36;;;;;;;;;;;;;;;;;;5054183;28;20371;-68
2023/04/03 01:46:02;;;;;;;;;;;;;;;;;;5054468;28;19956;-69
2023/04/03 01:48:28;;;;;;;;;;;;;;;;;;5054107;28;19986;-68
2023/04/03 01:50:54;;;;;;;;;;;;;;;;;;5053994;28;19974;-67
2023/04/03 01:53:20;;;;;;;;;;;;;;;;;;5054073;28;19986;-68
2023/04/03 01:55:46;;;;;;;;;;;;;;;;;;5054277;28;19991;-69
2023/04/03 01:58:12;;;;;;;;;;;;;;;;;;5053927;28;20423;-68
2023/04/03 02:00:37;;;;;;;;;;;;;;;;;;5053748;28;19962;-69
2023/04/03 02:03:03;;;;;;;;;;;;;;;;;;5053903;28;20327;-69
2023/04/03 02:05:29;;;;;;;;;;;;;;;;;;5053869;28;19959;-68
2023/04/03 02:07:56;;;;;;;;;;;;;;;;;;5054121;28;19956;-69
2023/04/03 02:10:22;;;;;;;;;;;;;;;;;;5053711;28;19982;-69
2023/04/03 02:12:48;;;;;;;;;;;;;;;;;;5054048;28;19954;-69
2023/04/03 02:15:14;;;;;;;;;;;;;;;;;;5053649;28;20423;-68
2023/04/03 02:17:40;;;;;;;;;;;;;;;;;;5053980;28;19967;-68
2023/04/03 02:20:05;;;;;;;;;;;;;;;;;;5053698;28;19955;-68
2023/04/03 02:22:31;;;;;;;;;;;;;;;;;;5053240;28;20038;-68
2023/04/03 02:24:57;;;;;;;;;;;;;;;;;;5053649;28;19961;-68
2023/04/03 02:27:23;;;;;;;;;;;;;;;;;;5053620;28;19966;-68
2023/04/03 02:29:49;;;;;;;;;;;;;;;;;;5053560;28;19986;-69
2023/04/03 02:32:15;;;;;;;;;;;;;;;;;;5053538;28;20008;-69
2023/04/03 02:34:42;;;;;;;;;;;;;;;;;;5053501;28;19981;-69
2023/04/03 02:37:08;;;;;;;;;;;;;;;;;;5052026;28;20088;-68
2023/04/03 02:39:34;;;;;;;;;;;;;;;;;;5053536;28;20500;-68
2023/04/03 02:42:00;;;;;;;;;;;;;;;;;;5053512;28;19956;-68
2023/04/03 02:44:26;;;;;;;;;;;;;;;;;;5053455;28;19997;-69
2023/04/03 02:46:52;;;;;;;;;;;;;;;;;;5053448;28;19956;-67
2023/04/03 02:49:18;;;;;;;;;;;;;;;;;;5053354;28;20046;-69
2023/04/03 02:51:44;;;;;;;;;;;;;;;;;;5053683;28;19955;-68
2023/04/03 02:54:10;;;;;;;;;;;;;;;;;;5053367;28;19955;-66
2023/04/03 02:56:35;;;;;;;;;;;;;;;;;;5053894;28;19968;-69
2023/04/03 02:59:01;;;;;;;;;;;;;;;;;;5053347;28;19956;-68
2023/04/03 03:01:31;;;;;;;;;;;;;;;;;;5053810;28;19971;-69
2023/04/03 03:03:57;;;;;;;;;;;;;;;;;;5053570;28;19955;-68
2023/04/03 03:06:22;;;;;;;;;;;;;;;;;;5053245;28;20552;-68
2023/04/03 03:08:48;;;;;;;;;;;;;;;;;;5053235;28;19954;-69
2023/04/03 03:11:14;;;;;;;;;;;;;;;;;;5053175;28;20348;-67
2023/04/03 03:13:40;;;;;;;;;;;;;;;;;;5054086;28;19967;-68
2023/04/03 03:16:06;;;;;;;;;;;;;;;;;;5056986;28;19955;-68
2023/04/03 03:18:32;;;;;;;;;;;;;;;;;;5057279;28;19963;-69
2023/04/03 03:20:58;;;;;;;;;;;;;;;;;;5056714;28;20037;-68
2023/04/03 03:23:24;;;;;;;;;;;;;;;;;;5057145;28;19955;-69
2023/04/03 03:25:50;;;;;;;;;;;;;;;;;;5057131;28;20407;-68
2023/04/03 03:28:16;;;;;;;;;;;;;;;;;;5057064;28;19956;-69
2023/04/03 03:30:42;;;;;;;;;;;;;;;;;;5056870;28;19990;-67
2023/04/03 03:33:08;;;;;;;;;;;;;;;;;;5057258;28;19990;-69
2023/04/03 03:35:34;;;;;;;;;;;;;;;;;;5056631;28;19956;-68
2023/04/03 03:38:00;;;;;;;;;;;;;;;;;;5057179;28;20004;-68
2023/04/03 03:40:26;;;;;;;;;;;;;;;;;;5056832;28;19979;-68
2023/04/03 03:42:52;;;;;;;;;;;;;;;;;;5057046;28;20047;-68
2023/04/03 03:45:18;;;;;;;;;;;;;;;;;;5056762;28;19955;-69
2023/04/03 03:47:44;;;;;;;;;;;;;;;;;;5056479;28;19955;-68
2023/04/03 03:50:11;;;;;;;;;;;;;;;;;;5056619;28;20085;-68
2023/04/03 03:52:37;;;;;;;;;;;;;;;;;;5056301;28;19988;-69
2023/04/03 03:55:03;;;;;;;;;;;;;;;;;;5056557;28;20046;-69
2023/04/03 03:57:29;;;;;;;;;;;;;;;;;;5056247;28;19955;-68
2023/04/03 03:59:55;;;;;;;;;;;;;;;;;;5056181;28;19978;-69
2023/04/03 04:02:21;;;;;;;;;;;;;;;;;;5056144;28;19956;-68
2023/04/03 04:04:47;;;;;;;;;;;;;;;;;;5056150;28;20322;-70
2023/04/03 04:07:13;;;;;;;;;;;;;;;;;;5056334;28;19958;-68
2023/04/03 04:09:39;;;;;;;;;;;;;;;;;;5055946;28;20045;-69
2023/04/03 04:12:04;;;;;;;;;;;;;;;;;;5056022;28;19955;-68
2023/04/03 04:14:30;;;;;;;;;;;;;;;;;;5055906;28;19955;-68
2023/04/03 04:16:56;;;;;;;;;;;;;;;;;;5055886;28;20051;-67
2023/04/03 04:19:22;;;;;;;;;;;;;;;;;;5056106;28;19987;-68
2023/04/03 04:21:48;;;;;;;;;;;;;;;;;;5055704;28;20413;-68
2023/04/03 04:24:14;;;;;;;;;;;;;;;;;;5055707;28;20359;-69
2023/04/03 04:26:40;;;;;;;;;;;;;;;;;;5055747;28;19982;-68
2023/04/03 04:29:06;;;;;;;;;;;;;;;;;;5055615;28;20467;-68
2023/04/03 04:31:32;;;;;;;;;;;;;;;;;;5055535;28;19988;-68
2023/04/03 04:33:57;;;;;;;;;;;;;;;;;;5055601;28;20480;-68
2023/04/03 04:36:23;;;;;;;;;;;;;;;;;;5055568;28;19958;-68
2023/04/03 04:38:52;;;;;;;;;;;;;;;;;;5055750;28;20289;-67
2023/04/03 04:41:20;;;;;;;;;;;;;;;;;;5055325;28;19960;-69
2023/04/03 04:43:46;;;;;;;;;;;;;;;;;;5054122;28;19962;-68
2023/04/03 04:46:12;;;;;;;;;;;;;;;;;;5055619;28;20047;-68
2023/04/03 04:48:38;;;;;;;;;;;;;;;;;;5055589;28;19956;-68
2023/04/03 04:51:04;;;;;;;;;;;;;;;;;;5053900;28;19979;-68
2023/04/03 04:53:30;;;;;;;;;;;;;;;;;;5055226;28;19954;-68
2023/04/03 04:55:56;;;;;;;;;;;;;;;;;;5055455;28;19955;-68
2023/04/03 04:58:22;;;;;;;;;;;;;;;;;;5055115;28;20470;-69
2023/04/03 05:00:48;;;;;;;;;;;;;;;;;;5055345;28;19973;-68
2023/04/03 05:03:14;;;;;;;;;;;;;;;;;;5055304;28;20049;-68
2023/04/03 05:05:40;;;;;;;;;;;;;;;;;;5054991;28;20006;-68
2023/04/03 05:08:06;;;;;;;;;;;;;;;;;;5055442;28;20396;-68
2023/04/03 05:10:32;;;;;;;;;;;;;;;;;;5055080;28;20011;-69
2023/04/03 05:12:58;;;;;;;;;;;;;;;;;;5054849;28;19954;-68
2023/04/03 05:15:24;;;;;;;;;;;;;;;;;;5055076;28;20056;-68
2023/04/03 05:17:50;;;;;;;;;;;;;;;;;;5054715;28;20404;-67
2023/04/03 05:20:16;;;;;;;;;;;;;;;;;;5054587;28;19994;-68
2023/04/03 05:22:42;;;;;;;;;;;;;;;;;;5054903;28;19960;-68
2023/04/03 05:25:08;;;;;;;;;;;;;;;;;;5054614;28;19956;-68
2023/04/03 05:27:34;;;;;;;;;;;;;;;;;;5055135;28;19956;-69
2023/04/03 05:30:00;;;;;;;;;;;;;;;;;;5054397;28;20015;-68
2023/04/03 05:32:27;;;;;;;;;;;;;;;;;;5055026;28;20415;-68
2023/04/03 05:34:53;;;;;;;;;;;;;;;;;;5054394;28;20009;-67
2023/04/03 05:37:19;;;;;;;;;;;;;;;;;;5054454;28;20417;-68
2023/04/03 05:39:45;;;;;;;;;;;;;;;;;;5054603;28;20393;-68
2023/04/03 05:42:11;;;;;;;;;;;;;;;;;;5054281;28;19963;-69
2023/04/03 05:44:38;;;;;;;;;;;;;;;;;;5054178;28;19955;-69
2023/04/03 05:47:04;;;;;;;;;;;;;;;;;;5052705;28;19966;-68
2023/04/03 05:49:30;;;;;;;;;;;;;;;;;;5054400;28;19955;-69
2023/04/03 05:51:56;;;;;;;;;;;;;;;;;;5054645;28;20412;-68
2023/04/03 05:54:24;;;;;;;;;;;;;;;;;;5054063;28;19956;-68
2023/04/03 05:56:50;;;;;;;;;;;;;;;;;;5054606;28;20051;-69
2023/04/03 05:59:16;;;;;;;;;;;;;;;;;;5054271;28;19995;-68
2023/04/03 06:01:42;;;;;;;;;;;;;;;;;;5054492;28;19962;-68
2023/04/03 06:04:08;;;;;;;;;;;;;;;;;;5053909;28;20494;-69
2023/04/03 06:06:35;;;;;;;;;;;;;;;;;;5054168;28;20005;-67
2023/04/03 06:09:00;;;;;;;;;;;;;;;;;;5053843;28;20006;-68
2023/04/03 06:11:27;;;;;;;;;;;;;;;;;;5053763;28;20050;-68
2023/04/03 06:13:53;;;;;;;;;;;;;;;;;;5053814;28;20011;-68
2023/04/03 06:16:19;;;;;;;;;;;;;;;;;;5053755;28;20404;-69
2023/04/03 06:18:45;;;;;;;;;;;;;;;;;;5053696;28;19963;-69
2023/04/03 06:21:11;;;;;;;;;;;;;;;;;;5053485;28;19992;-68
2023/04/03 06:23:37;;;;;;;;;;;;;;;;;;5054193;28;19977;-69
2023/04/03 06:26:03;;;;;;;;;;;;;;;;;;5053959;28;20397;-68
2023/04/03 06:28:29;;;;;;;;;;;;;;;;;;5053632;28;19955;-68
2023/04/03 06:30:55;;;;;;;;;;;;;;;;;;5054011;28;19979;-69
2023/04/03 06:33:21;;;;;;;;;;;;;;;;;;5053562;28;19956;-68
2023/04/03 06:35:46;;;;;;;;;;;;;;;;;;5053850;28;19978;-67
2023/04/03 06:38:12;;;;;;;;;;;;;;;;;;5053832;28;20053;-69
2023/04/03 06:40:38;;;;;;;;;;;;;;;;;;5053527;28;19956;-68
2023/04/03 06:43:05;;;;;;;;;;;;;;;;;;5053528;28;20416;-66
2023/04/03 06:45:31;;;;;;;;;;;;;;;;;;5054048;28;19962;-67
2023/04/03 06:47:57;;;;;;;;;;;;;;;;;;5054511;28;19956;-68
2023/04/03 06:50:22;;;;;;;;;;;;;;;;;;5046608;28;19983;-68
2023/04/03 06:52:48;;;;;;;;;;;;;;;;;;5038051;28;20457;-69
2023/04/03 06:55:14;;;;;;;;;;;;;;;;;;5037480;28;19955;-69
2023/04/03 06:57:40;;;;;;;;;;;;;;;;;;5038068;28;20396;-68
2023/04/03 07:00:07;;;;;;;;;;;;;;;;;;5037341;28;19956;-68
2023/04/03 07:02:32;;;;;;;;;;;;;;;;;;5043179;28;20490;-71
2023/04/03 07:04:58;;;;;;;;;;;;;;;;;;5044067;28;19959;-68
2023/04/03 07:07:24;;;;;;;;;;;;;;;;;;5057210;28;19959;-68
2023/04/03 07:09:51;;;;;;;;;;;;;;;;;;5044798;28;20447;-67
2023/04/03 07:12:16;;;;;;;;;;;;;;;;;;5057124;28;20478;-68
2023/04/03 07:14:42;;;;;;;;;;;;;;;;;;5052893;28;19964;-68
2023/04/03 07:17:08;;;;;;;;;;;;;;;;;;5045627;28;19966;-68
2023/04/03 07:19:34;;;;;;;;;;;;;;;;;;5042487;28;20320;-70
2023/04/03 07:22:00;;;;;;;;;;;;;;;;;;5042761;28;20078;-68
2023/04/03 07:24:26;;;;;;;;;;;;;;;;;;5039381;28;19964;-69
2023/04/03 07:26:52;;;;;;;;;;;;;;;;;;5054702;28;19955;-69
2023/04/03 07:29:18;;;;;;;;;;;;;;;;;;5046452;28;20343;-69
2023/04/03 07:31:44;;;;;;;;;;;;;;;;;;5055392;28;20005;-68
2023/04/03 07:34:10;;;;;;;;;;;;;;;;;;5040048;28;20351;-69
2023/04/03 07:36:37;;;;;;;;;;;;;;;;;;5036953;28;20378;-69
2023/04/03 07:39:03;;;;;;;;;;;;;;;;;;5041525;28;19963;-70
2023/04/03 07:41:30;;;;;;;;;;;;;;;;;;5036909;28;20006;-68
2023/04/03 07:43:56;;;;;;;;;;;;;;;;;;5036573;28;19961;-67
2023/04/03 07:46:22;;;;;;;;;;;;;;;;;;5036917;28;20010;-68
2023/04/03 07:48:48;;;;;;;;;;;;;;;;;;5056473;28;20046;-67
2023/04/03 07:51:14;;;;;;;;;;;;;;;;;;5053948;28;20067;-69
2023/04/03 07:53:40;;;;;;;;;;;;;;;;;;5049019;28;19970;-68
2023/04/03 07:56:06;;;;;;;;;;;;;;;;;;5036889;28;19960;-69
2023/04/03 07:58:32;;;;;;;;;;;;;;;;;;5043743;28;19967;-70
2023/04/03 08:00:58;;;;;;;;;;;;;;;;;;5052586;28;19965;-71
2023/04/03 08:03:24;;;;;;;;;;;;;;;;;;5054916;28;19964;-68
2023/04/03 08:05:50;;;;;;;;;;;;;;;;;;5056167;28;19956;-67
2023/04/03 08:08:16;;;;;;;;;;;;;;;;;;5056343;28;19986;-68
2023/04/03 08:10:42;;;;;;;;;;;;;;;;;;5043415;28;20081;-68
2023/04/03 08:13:08;;;;;;;;;;;;;;;;;;5036171;28;19957;-68
2023/04/03 08:15:34;;;;;;;;;;;;;;;;;;5035965;28;19963;-69
2023/04/03 08:18:00;;;;;;;;;;;;;;;;;;5041084;28;19965;-67
2023/04/03 08:20:26;;;;;;;;;;;;;;;;;;5053900;28;19959;-68
2023/04/03 08:22:52;;;;;;;;;;;;;;;;;;5041132;28;19968;-71
2023/04/03 08:25:18;;;;;;;;;;;;;;;;;;5055819;28;20042;-70
2023/04/03 08:27:44;;;;;;;;;;;;;;;;;;5055775;28;19978;-72
2023/04/03 08:30:10;;;;;;;;;;;;;;;;;;5054235;28;19979;-67
2023/04/03 08:32:36;;;;;;;;;;;;;;;;;;5045191;28;19960;-66
2023/04/03 08:35:02;;;;;;;;;;;;;;;;;;5035796;28;20051;-68
2023/04/03 08:37:28;;;;;;;;;;;;;;;;;;5034774;28;19958;-69
2023/04/03 08:39:54;;;;;;;;;;;;;;;;;;5035430;28;19982;-67
2023/04/03 08:42:20;;;;;;;;;;;;;;;;;;5035562;28;19964;-69
2023/04/03 08:44:46;;;;;;;;;;;;;;;;;;5040203;28;20344;-71
2023/04/03 08:47:12;;;;;;;;;;;;;;;;;;5054375;28;19963;-69
2023/04/03 08:49:38;;;;;;;;;;;;;;;;;;5054125;28;19962;-69
2023/04/03 08:52:04;;;;;;;;;;;;;;;;;;5038194;28;19968;-69
2023/04/03 08:54:30;;;;;;;;;;;;;;;;;;5035296;28;19957;-68
2023/04/03 08:56:56;;;;;;;;;;;;;;;;;;5051427;28;19960;-69
2023/04/03 08:59:22;;;;;;;;;;;;;;;;;;5045755;28;20050;-71
2023/04/03 09:01:48;;;;;;;;;;;;;;;;;;5053181;28;19966;-69
2023/04/03 09:04:14;;;;;;;;;;;;;;;;;;5049344;28;20414;-72
2023/04/03 09:06:40;;;;;;;;;;;;;;;;;;5052559;28;19963;-70
2023/04/03 09:09:06;;;;;;;;;;;;;;;;;;5041822;28;20033;-69
2023/04/03 09:11:32;;;;;;;;;;;;;;;;;;5053488;28;19988;-67
2023/04/03 09:13:58;;;;;;;;;;;;;;;;;;5055067;28;19960;-69
2023/04/03 09:16:24;;;;;;;;;;;;;;;;;;5053053;28;19954;-69
2023/04/03 09:18:50;;;;;;;;;;;;;;;;;;5034902;28;20010;-69
2023/04/03 09:21:16;;;;;;;;;;;;;;;;;;5034178;28;19996;-68
2023/04/03 09:23:42;;;;;;;;;;;;;;;;;;5042144;28;20339;-69
2023/04/03 09:26:08;;;;;;;;;;;;;;;;;;5038209;28;19964;-66
2023/04/03 09:28:35;;;;;;;;;;;;;;;;;;5037365;28;19965;-69
2023/04/03 09:31:01;;;;;;;;;;;;;;;;;;5053651;28;19998;-70
2023/04/03 09:33:26;;;;;;;;;;;;;;;;;;5049014;28;20411;-71
2023/04/03 09:35:52;;;;;;;;;;;;;;;;;;5033958;28;19956;-70
2023/04/03 09:38:18;;;;;;;;;;;;;;;;;;5031728;28;20352;-69
2023/04/03 09:40:45;;;;;;;;;;;;;;;;;;5033387;28;19956;-69
2023/04/03 09:43:11;;;;;;;;;;;;;;;;;;5041881;28;19962;-67
2023/04/03 09:45:37;;;;;;;;;;;;;;;;;;5048132;28;19960;-71
2023/04/03 09:48:03;;;;;;;;;;;;;;;;;;5044034;28;19971;-67
2023/04/03 09:50:29;;;;;;;;;;;;;;;;;;5049125;28;19985;-67
2023/04/03 09:52:55;;;;;;;;;;;;;;;;;;5053641;28;20444;-66
2023/04/03 09:55:26;;;;;;;;;;;;;;;;;;5052128;28;20009;-70
2023/04/03 09:57:52;;;;;;;;;;;;;;;;;;5051595;28;19971;-69
2023/04/03 10:00:18;;;;;;;;;;;;;;;;;;5053470;28;19956;-68
2023/04/03 10:02:44;;;;;;;;;;;;;;;;;;5050051;28;20081;-69
2023/04/03 10:05:10;;;;;;;;;;;;;;;;;;5043270;28;19964;-68
2023/04/03 10:07:37;;;;;;;;;;;;;;;;;;5031708;28;20463;-69
2023/04/03 10:10:03;;;;;;;;;;;;;;;;;;5049206;28;19979;-69
2023/04/03 10:12:29;;;;;;;;;;;;;;;;;;5050687;28;19970;-72
2023/04/03 10:14:55;;;;;;;;;;;;;;;;;;5042460;28;19968;-70
2023/04/03 10:17:22;;;;;;;;;;;;;;;;;;5033379;28;20000;-69
2023/04/03 10:19:48;;;;;;;;;;;;;;;;;;5050063;28;20442;-70
2023/04/03 10:22:14;;;;;;;;;;;;;;;;;;4984438;28;1956525;-72
2023/04/03 10:24:40;;;;;;;;;;;;;;;;;;5053680;28;19955;-72
2023/04/03 10:27:06;;;;;;;;;;;;;;;;;;5046523;28;19971;-69
2023/04/03 10:29:32;;;;;;;;;;;;;;;;;;5050042;28;19980;-68
2023/04/03 10:31:58;;;;;;;;;;;;;;;;;;5054109;28;20380;-69
2023/04/03 10:34:24;;;;;;;;;;;;;;;;;;5052619;28;19963;-68
2023/04/03 10:36:50;;;;;;;;;;;;;;;;;;5053526;28;20297;-70
2023/04/03 10:39:15;;;;;;;;;;;;;;;;;;5053814;28;20164;-70
2023/04/03 10:41:41;;;;;;;;;;;;;;;;;;5052376;28;19989;-70
2023/04/03 10:44:07;;;;;;;;;;;;;;;;;;5053463;28;19956;-69
2023/04/03 10:46:33;;;;;;;;;;;;;;;;;;5053397;28;19966;-68
2023/04/03 10:48:59;;;;;;;;;;;;;;;;;;5053450;28;19954;-70
2023/04/03 10:51:26;;;;;;;;;;;;;;;;;;5053585;28;19975;-70
2023/04/03 10:53:52;;;;;;;;;;;;;;;;;;5053410;28;20046;-69
2023/04/03 10:56:18;;;;;;;;;;;;;;;;;;5053333;28;20399;-67
2023/04/03 10:58:44;;;;;;;;;;;;;;;;;;5053383;28;19960;-72
2023/04/03 11:01:10;;;;;;;;;;;;;;;;;;5053592;28;19959;-68
2023/04/03 11:03:36;;;;;;;;;;;;;;;;;;5053274;28;20051;-67
2023/04/03 11:06:02;;;;;;;;;;;;;;;;;;5053296;28;19956;-70
2023/04/03 11:08:28;;;;;;;;;;;;;;;;;;5053524;28;19962;-69
2023/04/03 11:10:54;;;;;;;;;;;;;;;;;;5053685;28;19980;-70
2023/04/03 11:13:20;;;;;;;;;;;;;;;;;;5053175;28;20401;-69
2023/04/03 11:15:47;;;;;;;;;;;;;;;;;;5053191;28;20046;-70
2023/04/03 11:18:13;;;;;;;;;;;;;;;;;;5053459;28;19956;-70
2023/04/03 11:20:39;;;;;;;;;;;;;;;;;;5052964;28;20057;-70
2023/04/03 11:23:05;;;;;;;;;;;;;;;;;;5053659;28;20047;-69
2023/04/03 11:25:32;;;;;;;;;;;;;;;;;;5053312;28;19987;-71
2023/04/03 11:27:58;;;;;;;;;;;;;;;;;;5053612;28;19956;-68
2023/04/03 11:30:24;;;;;;;;;;;;;;;;;;5052891;28;20501;-70
2023/04/03 11:32:50;;;;;;;;;;;;;;;;;;5053008;28;19963;-68
2023/04/03 11:35:16;;;;;;;;;;;;;;;;;;5056298;28;19956;-72
2023/04/03 11:37:43;;;;;;;;;;;;;;;;;;5056701;28;19955;-69
2023/04/03 11:40:11;;;;;;;;;;;;;;;;;;5056945;28;19963;-70
2023/04/03 11:42:37;;;;;;;;;;;;;;;;;;5056570;28;20045;-69
2023/04/03 11:45:03;;;;;;;;;;;;;;;;;;5055219;28;20395;-69
2023/04/03 11:47:29;;;;;;;;;;;;;;;;;;5056514;28;19954;-70
2023/04/03 11:49:56;;;;;;;;;;;;;;;;;;5056669;28;19983;-69
2023/04/03 11:52:22;;;;;;;;;;;;;;;;;;5056354;28;20045;-70
2023/04/03 11:54:48;;;;;;;;;;;;;;;;;;5056606;28;19955;-71
2023/04/03 11:57:14;;;;;;;;;;;;;;;;;;5056284;28;20446;-68
2023/04/03 11:59:41;;;;;;;;;;;;;;;;;;5056594;28;19995;-68
2023/04/03 12:02:07;;;;;;;;;;;;;;;;;;5056539;28;19995;-71
2023/04/03 12:04:33;;;;;;;;;;;;;;;;;;5056176;28;20014;-70
2023/04/03 12:06:59;;;;;;;;;;;;;;;;;;5056115;28;19961;-72
2023/04/03 12:09:25;;;;;;;;;;;;;;;;;;5056387;28;19960;-69
2023/04/03 12:11:51;;;;;;;;;;;;;;;;;;5056019;28;20017;-68
2023/04/03 12:14:17;;;;;;;;;;;;;;;;;;5056575;28;20392;-70
2023/04/03 12:16:43;;;;;;;;;;;;;;;;;;5055954;28;19956;-70
2023/04/03 12:19:09;;;;;;;;;;;;;;;;;;5056176;28;19956;-70
2023/04/03 12:21:35;;;;;;;;;;;;;;;;;;5055686;28;19992;-71
2023/04/03 12:24:02;;;;;;;;;;;;;;;;;;5055843;28;19956;-69
2023/04/03 12:26:28;;;;;;;;;;;;;;;;;;5056328;28;19956;-67
2023/04/03 12:28:55;;;;;;;;;;;;;;;;;;5055917;28;19987;-70
2023/04/03 12:31:21;;;;;;;;;;;;;;;;;;5056129;28;19975;-69
2023/04/03 12:33:47;;;;;;;;;;;;;;;;;;5055907;28;19996;-68
2023/04/03 12:36:13;;;;;;;;;;;;;;;;;;5055852;28;20498;-70
2023/04/03 12:38:39;;;;;;;;;;;;;;;;;;5055519;28;19960;-68
2023/04/03 12:41:05;;;;;;;;;;;;;;;;;;5056053;28;19959;-70
2023/04/03 12:43:31;;;;;;;;;;;;;;;;;;5055431;28;20003;-69
2023/04/03 12:45:59;;;;;;;;;;;;;;;;;;5054484;28;19961;-69
2023/04/03 12:48:25;;;;;;;;;;;;;;;;;;5055332;28;19962;-72
2023/04/03 12:50:51;;;;;;;;;;;;;;;;;;5055770;28;20066;-68
2023/04/03 12:53:17;;;;;;;;;;;;;;;;;;5055302;28;19997;-70
2023/04/03 12:55:43;;;;;;;;;;;;;;;;;;5055522;28;20407;-67
2023/04/03 12:58:10;;;;;;;;;;;;;;;;;;5055212;28;19954;-67
2023/04/03 13:00:38;;;;;;;;;;;;;;;;;;5055705;28;19955;-67
2023/04/03 13:03:04;;;;;;;;;;;;;;;;;;5053779;28;20094;-68
2023/04/03 13:05:30;;;;;;;;;;;;;;;;;;5053870;28;20045;-69
2023/04/03 13:07:56;;;;;;;;;;;;;;;;;;5034831;28;19963;-68
2023/04/03 13:10:22;;;;;;;;;;;;;;;;;;5035213;28;20429;-70
2023/04/03 13:12:48;;;;;;;;;;;;;;;;;;5034932;28;19957;-70
2023/04/03 13:15:14;;;;;;;;;;;;;;;;;;5034893;28;19969;-72
2023/04/03 13:17:40;;;;;;;;;;;;;;;;;;5034762;28;20002;-73
2023/04/03 13:20:06;;;;;;;;;;;;;;;;;;5039040;28;19962;-72
2023/04/03 13:22:32;;;;;;;;;;;;;;;;;;5044173;28;20034;-71
2023/04/03 13:24:58;;;;;;;;;;;;;;;;;;5043125;28;20409;-70
2023/04/03 13:27:24;;;;;;;;;;;;;;;;;;5049853;28;19963;-70
2023/04/03 13:29:50;;;;;;;;;;;;;;;;;;5034270;28;19987;-70
2023/04/03 13:32:16;;;;;;;;;;;;;;;;;;5035365;28;19975;-68
2023/04/03 13:34:42;;;;;;;;;;;;;;;;;;5049702;28;19963;-68
2023/04/03 13:37:08;;;;;;;;;;;;;;;;;;5052071;28;20435;-68
2023/04/03 13:39:34;;;;;;;;;;;;;;;;;;5054375;28;19960;-68
2023/04/03 13:42:01;;;;;;;;;;;;;;;;;;5053106;28;19956;-67
2023/04/03 13:44:27;;;;;;;;;;;;;;;;;;5053357;28;19964;-68
2023/04/03 13:46:53;;;;;;;;;;;;;;;;;;5054290;28;20518;-68
2023/04/03 13:49:19;;;;;;;;;;;;;;;;;;5052434;28;19961;-70
2023/04/03 13:51:45;;;;;;;;;;;;;;;;;;5037913;28;19979;-69
2023/04/03 13:54:11;;;;;;;;;;;;;;;;;;5035785;28;19958;-67
2023/04/03 13:56:37;;;;;;;;;;;;;;;;;;5032180;28;20343;-68
2023/04/03 13:59:03;;;;;;;;;;;;;;;;;;5052787;28;20029;-69
2023/04/03 14:01:29;;;;;;;;;;;;;;;;;;5072637;28;20431;-68
2023/04/03 14:03:55;;;;;;;;;;;;;;;;;;5052963;28;20014;-67
2023/04/03 14:06:21;;;;;;;;;;;;;;;;;;5053891;28;19956;-66
2023/04/03 14:08:48;;;;;;;;;;;;;;;;;;5053996;28;20412;-68
2023/04/03 14:11:15;;;;;;;;;;;;;;;;;;5053783;28;19980;-69
2023/04/03 14:13:41;;;;;;;;;;;;;;;;;;5053932;28;19977;-70
2023/04/03 14:16:07;;;;;;;;;;;;;;;;;;5054147;28;19955;-69
2023/04/03 14:18:33;;;;;;;;;;;;;;;;;;5054080;28;19956;-68
2023/04/03 14:20:58;;;;;;;;;;;;;;;;;;5053588;28;20014;-70
2023/04/03 14:23:24;;;;;;;;;;;;;;;;;;5051398;28;20415;-65
2023/04/03 14:25:50;;;;;;;;;;;;;;;;;;5053690;28;19962;-73
2023/04/03 14:28:16;;;;;;;;;;;;;;;;;;5049922;28;19964;-65
2023/04/03 14:30:42;;;;;;;;;;;;;;;;;;5049098;28;20069;-70
2023/04/03 14:33:09;;;;;;;;;;;;;;;;;;5036206;28;20040;-70
2023/04/03 14:35:35;;;;;;;;;;;;;;;;;;5042031;28;19959;-69
2023/04/03 14:38:01;;;;;;;;;;;;;;;;;;5053577;28;20055;-72
2023/04/03 14:40:26;;;;;;;;;;;;;;;;;;5051780;28;19962;-70
2023/04/03 14:42:54;;;;;;;;;;;;;;;;;;5053549;28;19963;-69
2023/04/03 14:45:20;;;;;;;;;;;;;;;;;;5053463;28;19983;-69
2023/04/03 14:47:47;;;;;;;;;;;;;;;;;;5051310;28;19999;-69
2023/04/03 14:50:14;;;;;;;;;;;;;;;;;;5052716;28;19979;-69
2023/04/03 14:52:40;;;;;;;;;;;;;;;;;;5053419;28;19959;-70
2023/04/03 14:55:06;;;;;;;;;;;;;;;;;;5053626;28;19955;-70
2023/04/03 14:57:32;;;;;;;;;;;;;;;;;;5049139;28;20335;-66
2023/04/03 14:59:58;;;;;;;;;;;;;;;;;;5050932;28;19962;-68
2023/04/03 15:02:24;;;;;;;;;;;;;;;;;;5042679;28;20058;-70
2023/04/03 15:04:50;;;;;;;;;;;;;;;;;;5048971;28;19963;-68
2023/04/03 15:07:15;;;;;;;;;;;;;;;;;;5051972;28;19964;-67
2023/04/03 15:09:41;;;;;;;;;;;;;;;;;;5055999;28;20408;-68
2023/04/03 15:12:07;;;;;;;;;;;;;;;;;;5055816;28;19959;-68
2023/04/03 15:14:33;;;;;;;;;;;;;;;;;;5057692;28;20397;-67
2023/04/03 15:16:59;;;;;;;;;;;;;;;;;;5057377;28;20051;-68
2023/04/03 15:19:25;;;;;;;;;;;;;;;;;;5057031;28;20050;-69
2023/04/03 15:21:51;;;;;;;;;;;;;;;;;;5056995;28;20022;-70
2023/04/03 15:24:17;;;;;;;;;;;;;;;;;;5041246;28;20416;-69
2023/04/03 15:26:43;;;;;;;;;;;;;;;;;;5037270;28;20055;-68
2023/04/03 15:29:08;;;;;;;;;;;;;;;;;;5036855;28;20389;-68
2023/04/03 15:31:34;;;;;;;;;;;;;;;;;;5036297;28;19976;-68
2023/04/03 15:34:00;;;;;;;;;;;;;;;;;;5037115;28;20328;-67
2023/04/03 15:36:26;;;;;;;;;;;;;;;;;;5036802;28;19956;-68
2023/04/03 15:38:52;;;;;;;;;;;;;;;;;;5037024;28;20407;-68
2023/04/03 15:41:18;;;;;;;;;;;;;;;;;;5036722;28;20045;-69
2023/04/03 15:43:44;;;;;;;;;;;;;;;;;;5036915;28;19966;-66
2023/04/03 15:46:10;;;;;;;;;;;;;;;;;;5036616;28;19956;-67
2023/04/03 15:48:36;;;;;;;;;;;;;;;;;;5036548;28;19960;-67
2023/04/03 15:51:02;;;;;;;;;;;;;;;;;;5036463;28;19976;-67
2023/04/03 15:53:28;;;;;;;;;;;;;;;;;;5036728;28;20363;-68
2023/04/03 15:55:53;;;;;;;;;;;;;;;;;;5036998;28;19964;-67
2023/04/03 15:58:19;;;;;;;;;;;;;;;;;;5036419;28;19955;-67
2023/04/03 16:00:45;;;;;;;;;;;;;;;;;;5036411;28;19960;-69
2023/04/03 16:03:12;;;;;;;;;;;;;;;;;;5036324;28;19956;-70
2023/04/03 16:05:38;;;;;;;;;;;;;;;;;;5036299;28;20419;-67
2023/04/03 16:08:04;;;;;;;;;;;;;;;;;;5036271;28;20090;-68
2023/04/03 16:10:29;;;;;;;;;;;;;;;;;;5036117;28;20025;-68
2023/04/03 16:12:55;;;;;;;;;;;;;;;;;;5036410;28;20007;-67
2023/04/03 16:15:21;;;;;;;;;;;;;;;;;;5036115;28;20363;-69
2023/04/03 16:17:48;;;;;;;;;;;;;;;;;;5036085;28;20040;-68
2023/04/03 16:20:14;;;;;;;;;;;;;;;;;;5035995;28;19959;-67
2023/04/03 16:22:40;;;;;;;;;;;;;;;;;;5035955;28;19979;-69
2023/04/03 16:25:06;;;;;;;;;;;;;;;;;;5036206;28;19957;-67
2023/04/03 16:27:32;;;;;;;;;;;;;;;;;;5035850;28;20084;-67
2023/04/03 16:29:57;;;;;;;;;;;;;;;;;;5035848;28;19972;-66
2023/04/03 16:32:23;;;;;;;;;;;;;;;;;;5035299;28;20002;-68
2023/04/03 16:34:49;;;;;;;;;;;;;;;;;;5035688;28;19956;-68
2023/04/03 16:37:15;;;;;;;;;;;;;;;;;;5035942;28;19994;-68